Time;durP1;ratioP1;P1;durP2;ratioP2;P2;SDS_P1;SDS_P2;PMS_P1;PMS_P2;Temp;Humidity;BMP_temperature;BMP_pressure;BME280_temperature;BME280_humidity;BME280_pressure;Samples;Min_cycle;Max_cycle;Signal;HPM_P1;HPM_P2
2022/06/10 00:00:04;;;;;;;;;;;13.80;99.90;;;;;;5123116;28;19924;-77
2022/06/10 00:02:30;;;;;;;;;;;13.80;99.90;;;;;;5129782;27;20014;-77
2022/06/10 00:04:55;;;;;;;;;;;13.80;99.90;;;;;;5109327;28;20018;-77
2022/06/10 00:07:21;;;;;;;;;;;13.70;99.90;;;;;;5108542;28;20018;-78
2022/06/10 00:09:46;;;;;;;;;;;13.70;99.90;;;;;;5108744;28;20042;-78
2022/06/10 00:12:12;;;;;;;;;;;13.70;99.90;;;;;;5117857;27;19980;-77
2022/06/10 00:14:37;;;;;;;;;;;13.70;99.90;;;;;;5128728;27;19974;-78
2022/06/10 00:17:03;;;;;;;;;;;13.60;99.90;;;;;;5115389;27;19924;-78
2022/06/10 00:19:29;;;;;;;;;;;13.60;99.90;;;;;;5108705;28;19923;-78
2022/06/10 00:21:54;;;;;;;;;;;13.60;99.90;;;;;;5109990;28;19958;-78
2022/06/10 00:24:20;;;;;;;;;;;13.60;99.90;;;;;;5109308;28;20014;-78
2022/06/10 00:26:45;;;;;;;;;;;13.50;99.90;;;;;;5108844;28;19953;-77
2022/06/10 00:29:11;;;;;;;;;;;13.50;99.90;;;;;;5108576;28;19984;-77
2022/06/10 00:31:36;;;;;;;;;;;13.50;99.90;;;;;;5109874;28;20023;-77
2022/06/10 00:34:02;;;;;;;;;;;13.50;99.90;;;;;;5109520;28;20301;-78
2022/06/10 00:36:28;;;;;;;;;;;13.40;99.90;;;;;;5110006;28;19924;-78
2022/06/10 00:38:54;;;;;;;;;;;13.40;99.90;;;;;;5108316;28;19931;-78
2022/06/10 00:41:20;;;;;;;;;;;13.40;99.90;;;;;;5111247;28;19928;-77
2022/06/10 00:43:45;;;;;;;;;;;13.40;99.90;;;;;;5126675;27;19979;-77
2022/06/10 00:46:23;;;;;;;;;;;13.40;99.90;;;;;;5112255;28;19928;-78
2022/06/10 00:48:57;;;;;;;;;;;13.40;99.90;;;;;;5112042;28;19924;-78
2022/06/10 00:51:35;;;;;;;;;;;13.30;99.90;;;;;;5119023;27;19963;-77
2022/06/10 00:54:26;;;;;;;;;;;13.30;99.90;;;;;;5112283;28;19923;-78
2022/06/10 00:56:54;;;;;;;;;;;13.30;99.90;;;;;;5111092;28;19932;-78
2022/06/10 00:59:22;;;;;;;;;;;13.30;99.90;;;;;;5112807;28;19931;-77
2022/06/10 01:01:50;;;;;;;;;;;13.30;99.90;;;;;;5112201;28;19924;-78
2022/06/10 01:04:16;;;;;;;;;;;13.30;99.90;;;;;;5113113;28;19924;-77
2022/06/10 01:06:41;;;;;;;;;;;13.20;99.90;;;;;;5117350;27;20430;-78
2022/06/10 01:09:07;;;;;;;;;;;13.20;99.90;;;;;;5133384;27;20302;-77
2022/06/10 01:11:49;;;;;;;;;;;13.10;99.90;;;;;;5125534;27;19923;-78
2022/06/10 01:14:33;;;;;;;;;;;13.10;99.90;;;;;;5132372;27;20483;-77
2022/06/10 01:17:08;;;;;;;;;;;13.10;99.90;;;;;;5128958;27;19986;-77
2022/06/10 01:19:33;;;;;;;;;;;13.00;99.90;;;;;;5115272;27;19931;-78
2022/06/10 01:22:24;;;;;;;;;;;13.00;99.90;;;;;;5125126;27;19924;-77
2022/06/10 01:25:08;;;;;;;;;;;12.90;99.90;;;;;;5112648;28;19928;-77
2022/06/10 01:27:49;;;;;;;;;;;12.90;99.90;;;;;;5111304;28;20022;-77
2022/06/10 01:30:15;;;;;;;;;;;12.90;99.90;;;;;;5123143;27;19924;-77
2022/06/10 01:32:59;;;;;;;;;;;12.90;99.90;;;;;;5113615;27;19928;-77
2022/06/10 01:35:32;;;;;;;;;;;12.90;99.90;;;;;;5112749;28;19923;-78
2022/06/10 01:38:03;;;;;;;;;;;12.80;99.90;;;;;;5112227;28;20069;-77
2022/06/10 01:40:47;;;;;;;;;;;12.80;99.90;;;;;;5122702;27;19931;-78
2022/06/10 01:43:13;;;;;;;;;;;12.80;99.90;;;;;;5126894;27;20379;-78
2022/06/10 01:45:49;;;;;;;;;;;12.80;99.90;;;;;;5128368;27;19959;-77
2022/06/10 01:48:17;;;;;;;;;;;12.80;99.90;;;;;;5121634;27;19966;-77
2022/06/10 01:50:56;;;;;;;;;;;12.70;99.90;;;;;;5121805;27;20400;-78
2022/06/10 01:53:22;;;;;;;;;;;12.70;99.90;;;;;;5128318;27;20316;-77
2022/06/10 01:55:53;;;;;;;;;;;12.70;99.90;;;;;;5121709;27;19924;-77
2022/06/10 01:58:28;;;;;;;;;;;12.60;99.90;;;;;;5108176;27;19968;-77
2022/06/10 02:00:59;;;;;;;;;;;12.60;99.90;;;;;;5120860;27;20338;-78
2022/06/10 02:03:28;;;;;;;;;;;12.60;99.90;;;;;;5132331;27;19972;-77
2022/06/10 02:05:57;;;;;;;;;;;12.60;99.90;;;;;;5122932;27;19928;-77
2022/06/10 02:08:31;;;;;;;;;;;12.60;99.90;;;;;;5126071;27;19935;-77
2022/06/10 02:11:02;;;;;;;;;;;12.60;99.90;;;;;;5131194;27;20021;-77
2022/06/10 02:13:30;;;;;;;;;;;12.60;99.90;;;;;;5130579;27;19924;-77
2022/06/10 02:15:58;;;;;;;;;;;12.60;99.90;;;;;;5124280;27;20344;-77
2022/06/10 02:18:56;;;;;;;;;;;12.50;99.90;;;;;;5124969;27;19924;-77
2022/06/10 02:21:24;;;;;;;;;;;12.50;99.90;;;;;;5071189;28;19927;-77
2022/06/10 02:24:00;;;;;;;;;;;12.50;99.90;;;;;;5128371;27;19923;-78
2022/06/10 02:26:27;;;;;;;;;;;12.50;99.90;;;;;;5135442;27;19923;-77
2022/06/10 02:28:54;;;;;;;;;;;12.50;99.90;;;;;;5136545;27;19983;-77
2022/06/10 02:31:24;;;;;;;;;;;12.50;99.90;;;;;;5136127;27;20056;-77
2022/06/10 02:33:49;;;;;;;;;;;12.50;99.90;;;;;;5134319;27;19938;-77
2022/06/10 02:36:24;;;;;;;;;;;12.50;99.90;;;;;;5123358;27;19924;-77
2022/06/10 02:39:01;;;;;;;;;;;12.40;99.90;;;;;;5138112;27;19931;-77
2022/06/10 02:41:41;;;;;;;;;;;12.40;99.90;;;;;;5135444;27;19923;-77
2022/06/10 02:44:11;;;;;;;;;;;12.40;99.90;;;;;;5133146;27;19962;-77
2022/06/10 02:46:47;;;;;;;;;;;12.40;99.90;;;;;;5131004;27;20700;-77
2022/06/10 02:49:15;;;;;;;;;;;12.40;99.90;;;;;;5111770;28;19966;-77
2022/06/10 02:51:40;;;;;;;;;;;12.40;99.90;;;;;;5110102;28;20440;-77
2022/06/10 02:54:08;;;;;;;;;;;12.40;99.90;;;;;;5124288;27;19954;-79
2022/06/10 02:56:33;;;;;;;;;;;12.40;99.90;;;;;;5123140;27;19932;-77
2022/06/10 03:01:52;;;;;;;;;;;12.30;99.90;;;;;;5109723;28;20377;-77
2022/06/10 03:04:18;;;;;;;;;;;12.30;99.90;;;;;;5102678;28;19924;-77
2022/06/10 03:06:43;;;;;;;;;;;12.30;99.90;;;;;;5116015;27;19972;-77
2022/06/10 03:09:14;;;;;;;;;;;12.30;99.90;;;;;;5118827;27;19923;-77
2022/06/10 03:11:52;;;;;;;;;;;12.30;99.90;;;;;;5125228;27;19924;-77
2022/06/10 03:14:36;;;;;;;;;;;12.20;99.90;;;;;;5109440;28;19924;-77
2022/06/10 03:17:02;;;;;;;;;;;12.20;99.90;;;;;;5108363;28;19923;-77
2022/06/10 03:19:47;;;;;;;;;;;12.20;99.90;;;;;;5110158;28;19931;-77
2022/06/10 03:22:36;;;;;;;;;;;12.10;99.90;;;;;;5108679;28;19968;-77
2022/06/10 03:25:01;;;;;;;;;;;12.10;99.90;;;;;;5110214;27;20396;-77
2022/06/10 03:27:37;;;;;;;;;;;12.10;99.90;;;;;;5121186;27;20018;-78
2022/06/10 03:30:04;;;;;;;;;;;12.10;99.90;;;;;;5110124;28;19924;-77
2022/06/10 03:32:33;;;;;;;;;;;12.10;99.90;;;;;;5110212;28;19931;-78
2022/06/10 03:35:01;;;;;;;;;;;12.10;99.90;;;;;;5109576;28;19931;-77
2022/06/10 03:37:27;;;;;;;;;;;12.10;99.90;;;;;;5122843;27;19931;-78
2022/06/10 03:39:54;;;;;;;;;;;12.10;99.90;;;;;;5122032;27;19923;-77
2022/06/10 03:42:20;;;;;;;;;;;12.00;99.90;;;;;;5129471;27;19923;-78
2022/06/10 03:44:47;;;;;;;;;;;12.10;99.90;;;;;;5111177;28;19924;-77
2022/06/10 03:47:18;;;;;;;;;;;12.10;99.90;;;;;;5098087;28;19930;-78
2022/06/10 03:49:57;;;;;;;;;;;12.10;99.90;;;;;;5121171;28;19924;-77
2022/06/10 03:52:24;;;;;;;;;;;12.10;99.90;;;;;;5123714;28;19930;-77
2022/06/10 03:54:50;;;;;;;;;;;12.20;99.90;;;;;;5116174;28;20028;-78
2022/06/10 03:57:17;;;;;;;;;;;12.20;99.90;;;;;;5116196;28;19984;-77
2022/06/10 03:59:43;;;;;;;;;;;12.20;99.90;;;;;;5111237;28;19924;-77
2022/06/10 04:02:09;;;;;;;;;;;12.30;99.90;;;;;;5114932;28;20014;-77
2022/06/10 04:04:34;;;;;;;;;;;12.30;99.90;;;;;;5122231;27;20081;-77
2022/06/10 04:07:00;;;;;;;;;;;12.40;99.90;;;;;;5108932;28;19930;-78
2022/06/10 04:09:25;;;;;;;;;;;12.40;99.90;;;;;;5122100;28;19923;-77
2022/06/10 04:11:51;;;;;;;;;;;12.40;99.90;;;;;;5119354;27;19927;-77
2022/06/10 04:14:16;;;;;;;;;;;12.50;99.90;;;;;;5108581;28;19932;-77
2022/06/10 04:16:42;;;;;;;;;;;12.50;99.90;;;;;;5121586;27;19962;-78
2022/06/10 04:19:07;;;;;;;;;;;12.60;99.90;;;;;;5118472;27;20021;-77
2022/06/10 04:21:33;;;;;;;;;;;12.60;99.90;;;;;;5112249;28;20038;-78
2022/06/10 04:23:58;;;;;;;;;;;12.60;99.90;;;;;;5112598;28;19934;-77
2022/06/10 04:26:24;;;;;;;;;;;12.70;99.90;;;;;;5120456;27;19930;-77
2022/06/10 04:28:50;;;;;;;;;;;12.70;99.90;;;;;;5113824;28;19923;-78
2022/06/10 04:31:15;;;;;;;;;;;12.70;99.90;;;;;;5113087;28;20447;-77
2022/06/10 04:33:41;;;;;;;;;;;12.80;99.90;;;;;;5111890;28;19939;-77
2022/06/10 04:36:07;;;;;;;;;;;12.90;99.90;;;;;;5106034;28;19923;-77
2022/06/10 04:38:32;;;;;;;;;;;12.90;99.90;;;;;;5112409;28;19924;-78
2022/06/10 04:40:58;;;;;;;;;;;12.90;99.90;;;;;;5112025;28;20352;-77
2022/06/10 04:43:24;;;;;;;;;;;13.00;99.90;;;;;;5110156;28;20002;-78
2022/06/10 04:45:51;;;;;;;;;;;13.00;99.90;;;;;;5112549;28;19931;-78
2022/06/10 04:48:17;;;;;;;;;;;13.10;99.90;;;;;;5128512;27;19930;-78
2022/06/10 04:50:43;;;;;;;;;;;13.10;99.90;;;;;;5107278;28;19924;-77
2022/06/10 04:53:08;;;;;;;;;;;13.20;99.90;;;;;;5106059;28;20975;-77
2022/06/10 04:55:34;;;;;;;;;;;13.20;99.90;;;;;;5120039;27;19923;-77
2022/06/10 04:57:59;;;;;;;;;;;13.30;99.90;;;;;;5120005;27;19931;-77
2022/06/10 05:00:28;;;;;;;;;;;13.40;99.90;;;;;;5120090;27;20305;-77
2022/06/10 05:02:53;;;;;;;;;;;13.40;99.90;;;;;;5112967;28;19969;-77
2022/06/10 05:05:19;;;;;;;;;;;13.50;99.90;;;;;;5112104;28;20018;-77
2022/06/10 05:07:45;;;;;;;;;;;13.60;99.90;;;;;;5119440;27;19923;-77
2022/06/10 05:10:11;;;;;;;;;;;13.70;99.90;;;;;;5119028;27;19948;-77
2022/06/10 05:12:37;;;;;;;;;;;13.70;99.90;;;;;;5111536;28;19935;-77
2022/06/10 05:15:02;;;;;;;;;;;13.80;99.90;;;;;;5111490;28;19924;-77
2022/06/10 05:17:28;;;;;;;;;;;13.80;99.90;;;;;;5112756;28;19923;-78
2022/06/10 05:19:53;;;;;;;;;;;13.90;99.90;;;;;;5111834;28;19924;-77
2022/06/10 05:22:19;;;;;;;;;;;14.00;99.90;;;;;;5112575;28;19927;-77
2022/06/10 05:24:44;;;;;;;;;;;14.10;99.90;;;;;;5119587;27;20358;-78
2022/06/10 05:27:10;;;;;;;;;;;14.20;99.90;;;;;;5118910;27;20385;-77
2022/06/10 05:29:36;;;;;;;;;;;14.40;99.90;;;;;;5110876;28;19978;-77
2022/06/10 05:32:01;;;;;;;;;;;14.50;99.90;;;;;;5123249;27;19927;-77
2022/06/10 05:34:45;;;;;;;;;;;14.70;99.90;;;;;;5129652;27;19931;-77
2022/06/10 05:37:19;;;;;;;;;;;14.80;99.90;;;;;;5122852;27;19935;-77
2022/06/10 05:39:45;;;;;;;;;;;15.10;99.90;;;;;;5112354;27;19947;-77
2022/06/10 05:42:11;;;;;;;;;;;15.20;99.90;;;;;;5112673;28;20420;-78
2022/06/10 05:44:38;;;;;;;;;;;15.30;99.90;;;;;;5112413;28;19927;-77
2022/06/10 05:47:07;;;;;;;;;;;15.40;99.90;;;;;;5120253;27;20442;-77
2022/06/10 05:49:33;;;;;;;;;;;15.50;99.90;;;;;;5131201;27;19927;-77
2022/06/10 05:51:59;;;;;;;;;;;15.50;99.90;;;;;;5111319;28;19924;-76
2022/06/10 05:54:25;;;;;;;;;;;15.60;99.90;;;;;;5117068;27;20472;-76
2022/06/10 05:56:50;;;;;;;;;;;15.60;99.90;;;;;;5123722;27;19923;-76
2022/06/10 05:59:16;;;;;;;;;;;15.60;99.90;;;;;;5122939;27;19939;-77
2022/06/10 06:01:41;;;;;;;;;;;15.60;99.90;;;;;;5129453;27;20022;-77
2022/06/10 06:04:07;;;;;;;;;;;15.70;99.90;;;;;;5118995;27;19931;-77
2022/06/10 06:06:32;;;;;;;;;;;15.70;99.90;;;;;;5121437;27;20304;-77
2022/06/10 06:08:59;;;;;;;;;;;15.70;99.90;;;;;;5112142;27;20015;-77
2022/06/10 06:11:24;;;;;;;;;;;15.70;99.90;;;;;;5117211;27;19930;-77
2022/06/10 06:13:50;;;;;;;;;;;15.70;99.90;;;;;;5123424;27;20480;-77
2022/06/10 06:16:16;;;;;;;;;;;15.80;99.90;;;;;;5128787;27;19927;-77
2022/06/10 06:18:42;;;;;;;;;;;15.80;99.90;;;;;;5122761;27;19981;-78
2022/06/10 06:21:08;;;;;;;;;;;15.90;99.90;;;;;;5124697;27;19923;-78
2022/06/10 06:23:33;;;;;;;;;;;15.90;99.90;;;;;;5115847;27;19927;-77
2022/06/10 06:25:59;;;;;;;;;;;15.90;99.90;;;;;;5122092;27;20308;-77
2022/06/10 06:28:24;;;;;;;;;;;15.90;99.90;;;;;;5130959;27;19973;-78
2022/06/10 06:30:50;;;;;;;;;;;16.00;99.90;;;;;;5117570;27;19931;-78
2022/06/10 06:33:16;;;;;;;;;;;16.10;99.90;;;;;;5127967;27;19923;-77
2022/06/10 06:35:44;;;;;;;;;;;16.10;99.90;;;;;;5112134;27;19927;-77
2022/06/10 06:38:10;;;;;;;;;;;16.10;99.90;;;;;;5113740;27;19924;-78
2022/06/10 06:40:35;;;;;;;;;;;16.10;99.90;;;;;;5099649;27;19927;-78
2022/06/10 06:43:01;;;;;;;;;;;16.20;99.90;;;;;;5114018;27;19934;-78
2022/06/10 06:45:27;;;;;;;;;;;16.20;99.90;;;;;;5110110;27;19924;-78
2022/06/10 06:47:52;;;;;;;;;;;16.30;99.90;;;;;;5111966;27;20130;-78
2022/06/10 06:50:20;;;;;;;;;;;16.30;99.90;;;;;;5108463;27;19931;-78
2022/06/10 06:52:46;;;;;;;;;;;16.40;99.90;;;;;;5117619;27;20369;-78
2022/06/10 06:55:11;;;;;;;;;;;16.40;99.90;;;;;;5120556;27;19938;-78
2022/06/10 06:57:37;;;;;;;;;;;16.50;99.90;;;;;;5114757;27;20373;-77
2022/06/10 07:00:06;;;;;;;;;;;16.60;99.90;;;;;;5109530;27;19924;-77
2022/06/10 07:02:32;;;;;;;;;;;16.60;99.90;;;;;;5111560;27;20373;-78
2022/06/10 07:04:58;;;;;;;;;;;16.70;99.90;;;;;;5123100;27;19924;-78
2022/06/10 07:07:24;;;;;;;;;;;16.70;99.90;;;;;;5098696;27;19930;-77
2022/06/10 07:09:49;;;;;;;;;;;16.80;99.90;;;;;;5121481;27;19924;-77
2022/06/10 07:12:15;;;;;;;;;;;16.90;99.90;;;;;;5116688;27;19923;-77
2022/06/10 07:14:40;;;;;;;;;;;17.00;99.90;;;;;;5116607;27;19928;-77
2022/06/10 07:17:06;;;;;;;;;;;17.10;99.90;;;;;;5114728;27;19923;-77
2022/06/10 07:19:32;;;;;;;;;;;17.20;99.90;;;;;;5126912;27;19927;-77
2022/06/10 07:21:58;;;;;;;;;;;17.40;99.90;;;;;;5107291;27;19988;-77
2022/06/10 07:24:23;;;;;;;;;;;17.50;99.90;;;;;;5112359;27;19923;-78
2022/06/10 07:26:49;;;;;;;;;;;17.50;99.90;;;;;;5115832;27;19969;-77
2022/06/10 07:29:15;;;;;;;;;;;17.50;99.90;;;;;;5126036;27;19927;-78
2022/06/10 07:31:41;;;;;;;;;;;17.40;99.90;;;;;;5113592;27;20399;-77
2022/06/10 07:34:07;;;;;;;;;;;17.30;99.90;;;;;;5127718;27;19923;-77
2022/06/10 07:36:33;;;;;;;;;;;17.20;99.90;;;;;;5115697;27;19976;-78
2022/06/10 07:38:58;;;;;;;;;;;17.10;99.90;;;;;;5111225;28;20365;-77
2022/06/10 07:44:08;;;;;;;;;;;16.80;99.90;;;;;;5117859;27;19923;-78
2022/06/10 07:46:34;;;;;;;;;;;16.80;99.90;;;;;;5117792;27;19930;-77
2022/06/10 07:48:59;;;;;;;;;;;16.80;99.90;;;;;;5126626;27;19930;-78
2022/06/10 07:51:25;;;;;;;;;;;16.80;99.90;;;;;;5093433;28;19924;-77
2022/06/10 07:53:50;;;;;;;;;;;17.00;99.90;;;;;;5120424;28;19924;-77
2022/06/10 07:56:17;;;;;;;;;;;17.10;99.90;;;;;;5116861;28;20830;-77
2022/06/10 07:58:44;;;;;;;;;;;17.20;99.90;;;;;;5112842;28;19924;-78
2022/06/10 08:01:10;;;;;;;;;;;17.30;99.90;;;;;;5110924;27;20327;-77
2022/06/10 08:03:36;;;;;;;;;;;17.40;99.90;;;;;;5124199;27;19923;-78
2022/06/10 08:06:02;;;;;;;;;;;17.50;99.90;;;;;;5124314;28;20289;-77
2022/06/10 08:08:28;;;;;;;;;;;17.60;99.90;;;;;;5121193;28;19998;-77
2022/06/10 08:10:54;;;;;;;;;;;17.80;99.90;;;;;;5126179;27;19959;-77
2022/06/10 08:13:19;;;;;;;;;;;17.80;99.90;;;;;;5129463;27;19935;-78
2022/06/10 08:15:45;;;;;;;;;;;17.80;99.90;;;;;;5118600;27;20007;-78
2022/06/10 08:18:12;;;;;;;;;;;17.80;99.90;;;;;;5111675;28;20052;-78
2022/06/10 08:23:23;;;;;;;;;;;17.80;99.90;;;;;;5114204;27;19923;-77
2022/06/10 08:25:49;;;;;;;;;;;17.70;99.90;;;;;;5129395;27;20331;-78
2022/06/10 08:28:15;;;;;;;;;;;17.70;99.90;;;;;;5125290;27;20451;-77
2022/06/10 08:30:41;;;;;;;;;;;17.70;99.90;;;;;;5116514;27;20468;-77
2022/06/10 08:33:07;;;;;;;;;;;17.80;99.90;;;;;;5121722;27;19923;-78
2022/06/10 08:35:33;;;;;;;;;;;17.80;99.90;;;;;;5129089;27;19924;-78
2022/06/10 08:37:59;;;;;;;;;;;17.80;99.90;;;;;;5129151;27;20018;-77
2022/06/10 08:40:40;;;;;;;;;;;17.90;99.90;;;;;;5128558;27;19923;-78
2022/06/10 08:43:16;;;;;;;;;;;18.00;99.90;;;;;;5098898;28;19924;-78
2022/06/10 08:45:46;;;;;;;;;;;18.10;99.90;;;;;;5100227;28;19942;-78
2022/06/10 08:48:14;;;;;;;;;;;18.10;99.90;;;;;;5111983;27;19935;-77
2022/06/10 08:50:43;;;;;;;;;;;18.20;99.90;;;;;;5107364;28;19936;-78
2022/06/10 08:53:18;;;;;;;9.75;3.60;;;18.30;99.90;;;;;;5110321;28;20006;-78
2022/06/10 08:56:12;;;;;;;9.20;4.47;;;18.30;99.90;;;;;;5109025;27;20404;-78
2022/06/10 08:58:46;;;;;;;9.80;4.93;;;18.40;99.90;;;;;;5106975;28;20776;-78
2022/06/10 09:01:18;;;;;;;9.90;5.10;;;18.40;99.90;;;;;;5119594;27;20404;-77
2022/06/10 09:03:56;;;;;;;11.93;5.57;;;18.30;99.90;;;;;;5124692;27;20954;-77
2022/06/10 09:06:31;;;;;;;10.67;4.87;;;18.30;99.90;;;;;;5128646;27;20789;-77
2022/06/10 09:09:03;;;;;;;8.52;5.15;;;18.10;99.90;;;;;;5118278;27;20416;-77
2022/06/10 09:11:51;;;;;;;11.87;5.63;;;18.10;99.90;;;;;;5127441;27;20414;-77
2022/06/10 09:14:35;;;;;;;10.40;5.20;;;18.10;99.90;;;;;;5093573;28;21006;-77
2022/06/10 09:17:19;;;;;;;11.35;5.88;;;18.20;99.90;;;;;;5122885;27;20791;-78
2022/06/10 09:19:56;;;;;;;11.00;5.30;;;18.10;99.90;;;;;;5121593;27;20414;-77
2022/06/10 09:22:34;;;;;;;13.82;5.78;;;18.10;99.90;;;;;;5131824;27;20407;-77
2022/06/10 09:25:11;;;;;;;11.38;5.47;;;18.10;99.90;;;;;;5130771;27;20411;-77
2022/06/10 09:27:44;;;;;;;12.50;5.18;;;18.10;99.90;;;;;;5117182;27;20933;-78
2022/06/10 09:30:14;;;;;;;10.45;5.47;;;18.10;99.90;;;;;;5121464;27;20428;-77
2022/06/10 09:32:48;;;;;;;13.25;5.28;;;18.10;99.90;;;;;;5130737;27;20398;-77
2022/06/10 09:35:39;;;;;;;12.88;5.43;;;18.10;99.90;;;;;;5130005;27;20915;-78
2022/06/10 09:38:28;;;;;;;12.40;5.47;;;18.10;99.90;;;;;;5126960;27;20434;-78
2022/06/10 09:41:06;;;;;;;12.13;5.00;;;18.10;99.90;;;;;;5126560;27;20483;-78
2022/06/10 09:43:58;;;;;;;13.13;5.15;;;18.20;99.90;;;;;;5130905;27;20398;-77
2022/06/10 09:46:42;;;;;;;10.95;4.95;;;18.20;99.90;;;;;;5115556;27;20410;-77
2022/06/10 09:49:30;;;;;;;11.98;4.90;;;18.20;99.90;;;;;;5129463;27;20446;-77
2022/06/10 09:52:29;;;;;;;10.88;5.22;;;18.30;99.90;;;;;;5129810;27;20414;-77
2022/06/10 09:55:07;;;;;;;12.45;5.80;;;18.30;99.90;;;;;;5103548;28;20409;-77
2022/06/10 09:57:51;;;;;;;12.07;5.73;;;18.60;99.90;;;;;;5124780;27;20426;-78
2022/06/10 10:00:38;;;;;;;14.90;6.65;;;18.80;99.90;;;;;;5109143;28;20475;-76
2022/06/10 10:03:15;;;;;;;10.95;5.80;;;19.00;99.90;;;;;;5127184;27;20419;-76
2022/06/10 10:06:15;;;;;;;12.15;5.50;;;19.00;99.90;;;;;;5130790;27;20426;-77
2022/06/10 10:08:58;;;;;;;12.68;5.85;;;18.90;99.90;;;;;;5117026;27;20414;-76
2022/06/10 10:11:43;;;;;;;14.63;6.30;;;18.80;99.90;;;;;;5126689;27;20430;-77
2022/06/10 10:14:37;;;;;;;12.40;6.10;;;18.70;99.90;;;;;;5122989;27;20458;-77
2022/06/10 10:17:33;;;;;;;11.50;6.50;;;18.70;99.90;;;;;;5119725;27;20431;-77
2022/06/10 10:20:37;;;;;;;12.68;5.63;;;18.60;99.90;;;;;;5126164;27;20410;-77
2022/06/10 10:23:30;;;;;;;13.23;5.80;;;18.60;99.90;;;;;;5058228;28;20416;-77
2022/06/10 10:25:56;;;;;;;11.95;5.70;;;18.60;99.90;;;;;;5107006;28;20401;-78
2022/06/10 10:28:30;;;;;;;12.07;5.20;;;18.60;99.90;;;;;;5108722;27;20441;-77
2022/06/10 10:31:05;;;;;;;10.63;5.10;;;18.60;99.90;;;;;;5107604;28;20465;-78
2022/06/10 10:33:31;;;;;;;10.95;4.82;;;18.60;99.90;;;;;;5122795;27;20439;-77
2022/06/10 10:35:59;;;;;;;10.80;4.72;;;18.80;99.90;;;;;;5124354;27;20398;-77
2022/06/10 10:38:41;;;;;;;13.50;5.15;;;18.90;99.90;;;;;;5113633;27;20400;-77
2022/06/10 10:41:22;;;;;;;11.05;5.00;;;19.00;99.90;;;;;;5109583;28;20967;-78
2022/06/10 10:43:52;;;;;;;11.27;4.90;;;19.20;99.90;;;;;;5123728;27;20407;-78
2022/06/10 10:46:39;;;;;;;10.60;4.85;;;19.20;99.90;;;;;;5108802;28;20406;-78
2022/06/10 10:49:39;;;;;;;9.17;4.60;;;19.20;99.90;;;;;;5113523;27;20403;-77
2022/06/10 10:52:25;;;;;;;11.75;4.80;;;19.30;99.90;;;;;;5101912;27;20413;-79
2022/06/10 10:55:17;;;;;;;11.02;4.53;;;19.30;99.90;;;;;;5117183;27;20412;-78
2022/06/10 10:58:12;;;;;;;11.30;4.82;;;19.30;99.90;;;;;;5107616;28;20435;-78
2022/06/10 11:00:44;;;;;;;13.43;5.70;;;19.50;99.90;;;;;;5122241;27;20506;-78
2022/06/10 11:03:27;;;;;;;24.77;8.90;;;19.80;99.90;;;;;;5118228;27;20433;-78
2022/06/10 11:05:54;;;;;;;10.82;5.10;;;20.10;99.90;;;;;;5116245;27;20435;-77
2022/06/10 11:08:24;;;;;;;10.20;5.18;;;20.20;99.90;;;;;;5092680;27;20044;-78
2022/06/10 11:10:54;;;;;;;11.88;5.35;;;20.30;99.90;;;;;;5109031;27;20425;-78
2022/06/10 11:13:58;;;;;;;9.77;4.93;;;20.20;99.90;;;;;;5117130;27;20395;-78
2022/06/10 11:16:26;;;;;;;9.85;5.07;;;20.10;99.90;;;;;;5076198;28;20936;-78
2022/06/10 11:19:08;;;;;;;10.10;4.93;;;20.10;99.90;;;;;;5107910;27;20415;-78
2022/06/10 11:22:06;;;;;;;10.23;4.53;;;20.10;99.90;;;;;;5108772;28;20457;-78
2022/06/10 11:24:40;;;;;;;12.40;5.00;;;20.10;99.90;;;;;;5119091;27;20871;-78
2022/06/10 11:27:31;;;;;;;9.55;4.80;;;20.10;99.90;;;;;;5116468;27;20418;-78
2022/06/10 11:30:13;;;;;;;8.95;4.40;;;20.20;99.90;;;;;;5115901;27;21163;-78
2022/06/10 11:32:47;;;;;;;11.00;4.63;;;20.10;99.90;;;;;;5120675;27;20421;-77
2022/06/10 11:35:31;;;;;;;12.35;4.88;;;20.30;99.90;;;;;;5113557;27;21240;-78
2022/06/10 11:38:18;;;;;;;8.70;4.40;;;20.30;99.90;;;;;;5109632;28;20514;-77
2022/06/10 11:40:47;;;;;;;10.85;4.45;;;20.30;99.90;;;;;;5106811;28;20474;-78
2022/06/10 11:43:25;;;;;;;10.00;4.82;;;20.40;99.90;;;;;;5109490;27;20418;-78
2022/06/10 11:46:09;;;;;;;12.55;4.18;;;20.40;99.90;;;;;;5107155;28;20836;-78
2022/06/10 11:48:54;;;;;;;10.10;4.25;;;20.40;99.90;;;;;;5111917;28;20480;-78
2022/06/10 11:51:30;;;;;;;10.20;4.20;;;20.30;99.90;;;;;;5108500;28;20755;-77
2022/06/10 11:54:05;;;;;;;10.52;4.80;;;20.20;99.90;;;;;;5089828;28;20476;-78
2022/06/10 12:00:06;;;;;;;12.85;5.28;;;20.20;99.90;;;;;;5107748;28;20839;-78
2022/06/10 12:02:32;;;;;;;10.25;5.05;;;20.20;99.90;;;;;;5118990;27;20409;-78
2022/06/10 12:05:15;;;;;;;;;;;20.20;99.90;;;;;;5118257;27;20052;-78
2022/06/10 12:07:55;;;;;;;;;;;20.10;99.90;;;;;;5127998;28;19930;-78
2022/06/10 12:10:24;;;;;;;;;;;20.00;99.90;;;;;;5113148;28;20357;-78
2022/06/10 12:12:49;;;;;;;;;;;20.00;99.90;;;;;;5112524;28;19919;-78
2022/06/10 12:15:27;;;;;;;;;;;20.00;99.90;;;;;;5116442;27;19965;-79
2022/06/10 12:17:55;;;;;;;;;;;20.20;99.90;;;;;;5114167;28;19923;-78
2022/06/10 12:20:43;;;;;;;9.15;3.40;;;20.40;99.90;;;;;;5117519;28;20010;-78
2022/06/10 12:23:23;;;;;;;7.28;3.70;;;20.60;99.90;;;;;;5118022;28;20519;-77
2022/06/10 12:26:09;;;;;;;6.88;2.63;;;20.70;99.90;;;;;;5116494;27;20051;-77
2022/06/10 12:28:54;;;;;;;8.73;2.75;;;20.70;99.90;;;;;;5107025;28;20054;-78
2022/06/10 12:31:20;;;;;;;;;;;20.90;99.90;;;;;;5108095;28;20130;-78
2022/06/10 12:34:37;;;;;;;9.80;2.70;;;21.10;99.90;;;;;;5108126;28;20038;-78
2022/06/10 12:37:14;;;;;;;7.53;2.33;;;21.40;99.90;;;;;;5103073;27;20051;-76
2022/06/10 12:39:51;;;;;;;7.50;2.72;;;21.70;99.90;;;;;;5128134;27;20118;-77
2022/06/10 12:42:19;;;;;;;;;;;22.00;99.90;;;;;;5113836;28;20047;-77
2022/06/10 12:44:50;;;;;;;;;;;22.30;99.90;;;;;;5122800;27;20383;-77
2022/06/10 12:47:20;;;;;;;;;;;22.40;99.90;;;;;;5116493;27;19934;-77
2022/06/10 12:49:46;;;;;;;;;;;22.30;99.90;;;;;;5118703;27;19923;-78
2022/06/10 12:52:18;;;;;;;;;;;22.20;99.90;;;;;;5115269;27;19968;-78
2022/06/10 12:54:44;;;;;;;;;;;22.00;99.90;;;;;;5119381;27;20018;-78
2022/06/10 12:57:21;;;;;;;;;;;21.90;99.90;;;;;;5113507;27;20006;-78
2022/06/10 12:59:47;;;;;;;;;;;21.80;99.90;;;;;;5121361;27;19923;-78
2022/06/10 13:02:32;;;;;;;;;;;21.60;99.90;;;;;;5122377;27;19920;-78
2022/06/10 13:04:59;;;;;;;;;;;21.60;99.90;;;;;;5114438;27;19926;-78
2022/06/10 13:07:26;;;;;;;;;;;21.70;99.90;;;;;;5094951;28;19934;-78
2022/06/10 13:09:52;;;;;;;;;;;21.80;99.90;;;;;;5111927;27;19920;-78
2022/06/10 13:12:37;;;;;;;;;;;22.00;99.90;;;;;;5118193;27;20755;-78
2022/06/10 13:15:24;;;;;;;;;;;22.00;99.90;;;;;;5128290;27;19942;-78
2022/06/10 13:17:55;;;;;;;;;;;22.10;99.90;;;;;;5094322;28;19965;-77
2022/06/10 13:20:21;;;;;;;;;;;22.10;99.90;;;;;;5110844;28;20403;-78
2022/06/10 13:23:05;;;;;;;;;;;22.10;99.90;;;;;;5094077;28;20405;-78
2022/06/10 13:25:31;;;;;;;;;;;22.10;99.90;;;;;;5111854;27;20376;-78
2022/06/10 13:27:58;;;;;;;;;;;22.10;99.90;;;;;;5127147;27;19926;-77
2022/06/10 13:30:29;;;;;;;;;;;22.10;99.90;;;;;;5111216;27;20308;-78
2022/06/10 13:33:00;;;;;;;;;;;22.20;99.90;;;;;;5131130;27;20278;-78
2022/06/10 13:35:29;;;;;;;;;;;22.20;99.90;;;;;;5110442;27;20335;-78
2022/06/10 13:37:57;;;;;;;;;;;22.10;99.90;;;;;;5116642;27;19920;-78
2022/06/10 13:40:27;;;;;;;;;;;22.10;99.90;;;;;;5111064;28;19930;-78
2022/06/10 13:42:54;;;;;;;;;;;22.00;99.90;;;;;;5111428;27;19919;-78
2022/06/10 13:45:21;;;;;;;;;;;21.90;99.90;;;;;;5116344;27;19974;-78
2022/06/10 13:47:56;;;;;;;;;;;21.80;99.90;;;;;;5111218;27;19924;-78
2022/06/10 13:53:00;;;;;;;;;;;21.60;99.90;;;;;;5116965;27;19972;-78
2022/06/10 13:55:31;;;;;;;;;;;21.60;99.90;;;;;;5110801;28;19976;-78
2022/06/10 13:57:56;;;;;;;;;;;21.60;99.90;;;;;;5111666;27;19942;-77
2022/06/10 14:00:24;;;;;;;;;;;21.70;99.90;;;;;;5111058;27;20378;-78
2022/06/10 14:02:50;;;;;;;7.47;2.45;;;21.80;99.90;;;;;;5117746;27;19959;-78
2022/06/10 14:05:21;;;;;;;10.60;3.05;;;22.10;99.90;;;;;;5124180;27;20039;-78
2022/06/10 14:07:48;;;;;;;6.57;2.70;;;22.30;99.90;;;;;;5118143;27;20132;-78
2022/06/10 14:10:25;;;;;;;;;;;22.70;99.90;;;;;;5099568;27;20043;-76
2022/06/10 14:13:00;;;;;;;6.70;2.10;;;22.90;99.90;;;;;;5112969;27;20014;-77
2022/06/10 14:15:28;;;;;;;6.45;1.88;;;23.00;99.90;;;;;;5111914;27;20048;-77
2022/06/10 14:17:58;;;;;;;7.20;1.60;;;23.10;99.90;;;;;;5111375;28;20051;-77
2022/06/10 14:20:36;;;;;;;6.60;1.70;;;23.10;99.90;;;;;;5121503;27;20079;-78
2022/06/10 14:23:07;;;;;;;4.97;1.40;;;23.10;99.90;;;;;;5115987;27;20054;-78
2022/06/10 14:25:34;;;;;;;4.50;1.55;;;23.20;99.90;;;;;;5111877;27;20044;-78
2022/06/10 14:28:00;;;;;;;8.27;1.65;;;23.20;99.90;;;;;;5128070;27;20039;-78